Time;durP1;ratioP1;P1;durP2;ratioP2;P2;SDS_P1;SDS_P2;PMS_P1;PMS_P2;Temp;Humidity;BMP_temperature;BMP_pressure;BME280_temperature;BME280_humidity;BME280_pressure;Samples;Min_cycle;Max_cycle;Signal;HPM_P1;HPM_P2
2022/11/10 00:00:35;;;;;;;55.58;31.58;;;12.50;77.30;;;;;;5056255;28;20179;-16
2022/11/10 00:03:06;;;;;;;42.83;25.05;;;12.50;77.90;;;;;;5055736;28;20027;-15
2022/11/10 00:05:32;;;;;;;39.40;24.40;;;12.40;77.70;;;;;;5056199;28;20393;-15
2022/11/10 00:08:04;;;;;;;44.15;25.55;;;12.40;78.40;;;;;;5056182;28;20070;-16
2022/11/10 00:10:30;;;;;;;36.72;21.73;;;12.40;79.30;;;;;;5056048;28;20040;-16
2022/11/10 00:13:00;;;;;;;47.05;27.77;;;12.40;78.50;;;;;;5055715;28;20036;-17
2022/11/10 00:18:10;;;;;;;39.35;23.65;;;12.30;78.90;;;;;;5056088;28;20043;-16
2022/11/10 00:20:36;;;;;;;39.30;22.83;;;12.30;79.00;;;;;;5038026;28;20029;-16
2022/11/10 00:23:02;;;;;;;43.53;24.63;;;12.30;79.10;;;;;;5055420;28;20071;-18
2022/11/10 00:25:30;;;;;;;41.55;24.45;;;12.30;79.00;;;;;;5055835;28;20052;-16
2022/11/10 00:27:58;;;;;;;42.42;25.67;;;12.20;78.60;;;;;;5037596;28;20017;-16
2022/11/10 00:30:25;;;;;;;42.72;24.27;;;12.30;78.70;;;;;;5055670;28;20490;-15
2022/11/10 00:32:51;;;;;;;36.53;21.40;;;12.20;78.60;;;;;;5055395;28;20396;-15
2022/11/10 00:35:17;;;;;;;45.00;25.75;;;12.30;78.70;;;;;;5055704;28;20021;-16
2022/11/10 00:37:43;;;;;;;46.47;26.27;;;12.20;78.90;;;;;;5055518;28;20100;-17
2022/11/10 00:40:09;;;;;;;38.33;22.60;;;12.30;78.90;;;;;;5055543;28;20028;-15
2022/11/10 00:42:35;;;;;;;53.47;29.90;;;12.30;78.80;;;;;;5055357;28;20119;-18
2022/11/10 00:45:02;;;;;;;56.78;30.75;;;12.30;78.80;;;;;;5054996;28;20036;-17
2022/11/10 00:47:28;;;;;;;37.42;21.83;;;12.30;79.60;;;;;;5055182;28;20032;-17
2022/11/10 00:49:53;;;;;;;36.25;21.52;;;12.30;79.10;;;;;;5055138;28;20029;-17
2022/11/10 00:52:19;;;;;;;53.25;29.42;;;12.30;79.10;;;;;;5055379;28;20032;-17
2022/11/10 00:54:45;;;;;;;37.75;23.10;;;12.30;79.10;;;;;;5053949;28;20029;-17
2022/11/10 00:57:11;;;;;;;39.15;23.17;;;12.30;79.10;;;;;;5054738;28;20084;-17
2022/11/10 00:59:37;;;;;;;45.22;25.33;;;12.30;79.00;;;;;;5055200;28;20032;-18
2022/11/10 01:02:02;;;;;;;37.50;20.67;;;12.40;79.10;;;;;;5055185;28;20104;-16
2022/11/10 01:04:28;;;;;;;32.90;19.30;;;12.40;79.20;;;;;;5054910;28;20032;-18
2022/11/10 01:06:54;;;;;;;37.35;21.90;;;12.40;79.00;;;;;;5054597;28;20013;-17
2022/11/10 01:09:20;;;;;;;33.85;20.85;;;12.40;79.00;;;;;;5055291;28;20066;-16
2022/11/10 01:11:46;;;;;;;53.30;28.83;;;12.40;79.40;;;;;;5055005;28;20468;-16
2022/11/10 01:14:11;;;;;;;51.67;28.75;;;12.40;79.30;;;;;;5054675;28;20413;-15
2022/11/10 01:16:37;;;;;;;35.97;21.38;;;12.40;79.30;;;;;;5036658;28;20396;-17
2022/11/10 01:19:04;;;;;;;43.60;25.35;;;12.40;79.40;;;;;;5054381;28;20032;-18
2022/11/10 01:21:30;;;;;;;57.42;32.35;;;12.40;79.70;;;;;;5054718;28;20439;-14
2022/11/10 01:23:56;;;;;;;44.35;24.65;;;12.40;79.60;;;;;;5054466;28;20476;-16
2022/11/10 01:26:23;;;;;;;48.65;26.67;;;12.40;79.40;;;;;;5036635;28;20032;-14
2022/11/10 01:28:49;;;;;;;41.83;23.60;;;12.40;79.60;;;;;;5054323;28;20520;-15
2022/11/10 01:31:20;;;;;;;41.05;23.83;;;12.40;79.50;;;;;;5054291;28;20105;-15
2022/11/10 01:33:46;;;;;;;38.42;22.73;;;12.40;79.60;;;;;;5036589;28;20546;-16
2022/11/10 01:36:12;;;;;;;40.63;22.70;;;12.40;79.50;;;;;;5054438;28;20366;-16
2022/11/10 01:38:40;;;;;;;32.40;19.88;;;12.40;79.60;;;;;;5054215;28;20086;-16
2022/11/10 01:41:08;;;;;;;33.92;20.25;;;12.40;79.70;;;;;;5053956;28;20068;-15
2022/11/10 01:43:34;;;;;;;49.13;26.98;;;12.40;79.60;;;;;;5054523;28;20503;-15
2022/11/10 01:46:00;;;;;;;46.10;26.23;;;12.40;79.70;;;;;;5054199;28;20053;-16
2022/11/10 01:48:52;;;;;;;55.67;29.13;;;12.40;79.70;;;;;;5054268;28;20060;-18
2022/11/10 01:51:22;;;;;;;45.13;25.23;;;12.40;79.80;;;;;;5054333;28;20071;-17
2022/11/10 01:54:00;;;;;;;43.35;23.65;;;12.40;79.90;;;;;;5053873;28;20469;-16
2022/11/10 01:56:31;;;;;;;39.58;23.23;;;12.30;79.90;;;;;;5053909;28;20025;-16
2022/11/10 01:59:00;;;;;;;42.55;24.15;;;12.40;80.10;;;;;;5053782;28;20489;-19
2022/11/10 02:01:26;;;;;;;38.15;20.83;;;12.40;80.00;;;;;;5053708;28;20082;-18
2022/11/10 02:03:57;;;;;;;37.05;21.50;;;12.40;80.10;;;;;;5053747;28;20546;-17
2022/11/10 02:06:29;;;;;;;42.88;25.33;;;12.40;80.10;;;;;;5053615;28;20055;-19
2022/11/10 02:08:58;;;;;;;52.30;28.38;;;12.40;80.00;;;;;;5053696;28;20029;-17
2022/11/10 02:11:25;;;;;;;44.47;24.38;;;12.40;80.00;;;;;;5053914;28;20021;-16
2022/11/10 02:13:52;;;;;;;43.72;24.30;;;12.40;80.30;;;;;;5053585;28;20048;-19
2022/11/10 02:16:18;;;;;;;39.30;20.77;;;12.40;80.20;;;;;;5053607;28;20033;-16
2022/11/10 02:18:44;;;;;;;34.72;20.45;;;12.40;80.20;;;;;;5053810;28;20029;-16
2022/11/10 02:21:10;;;;;;;41.90;23.17;;;12.40;80.20;;;;;;5053281;28;20112;-17
2022/11/10 02:23:36;;;;;;;45.88;24.92;;;12.40;80.30;;;;;;5053965;28;20029;-16
2022/11/10 02:26:06;;;;;;;50.03;26.80;;;12.40;80.30;;;;;;5053355;28;20025;-15
2022/11/10 02:28:34;;;;;;;38.13;21.08;;;12.40;80.20;;;;;;5053337;28;20519;-15
2022/11/10 02:31:01;;;;;;;37.35;20.95;;;12.40;80.30;;;;;;5053043;28;20029;-15
2022/11/10 02:33:27;;;;;;;39.05;22.65;;;12.40;80.40;;;;;;5053581;28;20032;-17
2022/11/10 02:35:53;;;;;;;45.63;25.63;;;12.40;80.50;;;;;;5053728;28;20034;-17
2022/11/10 02:38:19;;;;;;;49.70;29.10;;;12.40;80.50;;;;;;5053130;28;20416;-17
2022/11/10 02:40:45;;;;;;;39.92;23.40;;;12.40;80.60;;;;;;5053141;28;20096;-18
2022/11/10 02:43:14;;;;;;;35.35;20.77;;;12.40;80.50;;;;;;5052948;28;20028;-16
2022/11/10 02:45:45;;;;;;;36.60;21.05;;;12.40;80.70;;;;;;5053202;28;20032;-15
2022/11/10 02:48:14;;;;;;;39.22;21.83;;;12.40;80.80;;;;;;5053088;28;20074;-15
2022/11/10 02:50:40;;;;;;;36.22;20.83;;;12.40;80.80;;;;;;5053027;28;20021;-15
2022/11/10 02:53:06;;;;;;;36.03;20.23;;;12.40;80.70;;;;;;5053208;28;20035;-17
2022/11/10 02:55:32;;;;;;;50.10;27.08;;;12.40;80.80;;;;;;5052950;28;20021;-17
2022/11/10 02:57:58;;;;;;;39.63;21.98;;;12.40;80.80;;;;;;5053201;28;20040;-17
2022/11/10 03:00:25;;;;;;;37.92;22.10;;;12.50;80.90;;;;;;5053086;28;20473;-16
2022/11/10 03:03:01;;;;;;;47.10;25.33;;;12.40;80.90;;;;;;5052787;28;20033;-16
2022/11/10 03:05:28;;;;;;;31.88;19.08;;;12.40;80.90;;;;;;5052902;28;20503;-17
2022/11/10 03:07:59;;;;;;;35.55;19.15;;;12.40;81.10;;;;;;5052837;28;20075;-17
2022/11/10 03:10:26;;;;;;;35.03;20.23;;;12.40;81.20;;;;;;5053385;28;20025;-18
2022/11/10 03:12:57;;;;;;;35.72;20.77;;;12.30;81.30;;;;;;5052691;28;20028;-15
2022/11/10 03:15:23;;;;;;;31.42;18.55;;;12.40;81.40;;;;;;5034648;28;20037;-13
2022/11/10 03:17:50;;;;;;;44.60;24.48;;;12.30;81.40;;;;;;5054518;28;20116;-15
2022/11/10 03:20:17;;;;;;;37.92;20.58;;;12.30;81.40;;;;;;5056871;28;20052;-16
2022/11/10 03:22:44;;;;;;;45.60;24.25;;;12.30;81.40;;;;;;5056817;28;20419;-15
2022/11/10 03:25:11;;;;;;;42.97;23.10;;;12.30;81.50;;;;;;5056593;28;20400;-15
2022/11/10 03:27:37;;;;;;;40.00;21.48;;;12.30;81.70;;;;;;5056936;28;20025;-16
2022/11/10 03:30:04;;;;;;;42.20;24.05;;;12.20;81.70;;;;;;5056561;28;20032;-16
2022/11/10 03:32:30;;;;;;;37.90;21.73;;;12.20;81.80;;;;;;5056489;28;20099;-15
2022/11/10 03:34:56;;;;;;;40.15;22.15;;;12.20;81.90;;;;;;5056848;28;20115;-16
2022/11/10 03:37:22;;;;;;;35.35;20.20;;;12.20;81.90;;;;;;5057066;28;20029;-15
2022/11/10 03:39:48;;;;;;;32.78;19.23;;;12.20;82.00;;;;;;5056698;28;20048;-15
2022/11/10 03:42:15;;;;;;;35.08;19.25;;;12.20;82.00;;;;;;5056417;28;20057;-15
2022/11/10 03:44:41;;;;;;;33.47;20.23;;;12.30;82.10;;;;;;5056386;28;20032;-15
2022/11/10 03:47:07;;;;;;;31.48;17.98;;;12.30;82.10;;;;;;5021792;28;20025;-14
2022/11/10 03:49:33;;;;;;;30.80;19.02;;;12.30;82.10;;;;;;5056904;28;20033;-15
2022/11/10 03:51:58;;;;;;;30.92;18.05;;;12.30;82.20;;;;;;5057019;28;20024;-15
2022/11/10 03:54:24;;;;;;;35.45;19.52;;;12.40;82.40;;;;;;5056203;28;20464;-15
2022/11/10 03:56:50;;;;;;;34.38;20.08;;;12.40;82.30;;;;;;5055989;28;20108;-15
2022/11/10 03:59:16;;;;;;;38.13;23.23;;;12.40;82.20;;;;;;5056359;28;20040;-15
2022/11/10 04:01:42;;;;;;;28.67;17.73;;;12.40;82.70;;;;;;5055944;28;20457;-15
2022/11/10 04:08:57;;;;;;;27.65;16.33;;;12.40;82.70;;;;;;5056236;28;20108;-15
2022/11/10 04:09:39;;;;;;;27.50;17.15;;;12.40;82.50;;;;;;5056274;28;20032;-15
2022/11/10 04:17:33;;;;;;;42.40;23.83;;;12.40;82.90;;;;;;5055851;28;20523;-16
2022/11/10 04:20:01;;;;;;;35.50;19.33;;;12.50;83.00;;;;;;5055947;28;20033;-15
2022/11/10 04:25:11;;;;;;;43.17;23.20;;;12.50;82.80;;;;;;5055544;28;20079;-15
2022/11/10 04:27:38;;;;;;;35.35;20.65;;;12.50;82.80;;;;;;5055858;28;20021;-15
2022/11/10 04:30:04;;;;;;;30.33;18.27;;;12.50;82.60;;;;;;5055598;28;20041;-14
2022/11/10 04:32:31;;;;;;;40.47;22.00;;;12.50;82.60;;;;;;5055651;28;20064;-14
2022/11/10 04:34:57;;;;;;;31.45;18.35;;;12.50;82.60;;;;;;5055552;28;20029;-15
2022/11/10 04:37:22;;;;;;;28.20;17.30;;;12.50;82.60;;;;;;5055303;28;20499;-15
2022/11/10 04:39:48;;;;;;;29.58;16.38;;;12.50;82.60;;;;;;5055357;28;20031;-14
2022/11/10 04:42:14;;;;;;;27.02;17.25;;;12.60;82.70;;;;;;5037911;28;20100;-15
2022/11/10 04:44:40;;;;;;;31.50;18.48;;;12.60;82.70;;;;;;5055196;28;20381;-14
2022/11/10 04:47:06;;;;;;;34.35;19.33;;;12.60;82.60;;;;;;5055092;28;20021;-15
2022/11/10 04:49:31;;;;;;;38.63;21.65;;;12.60;82.60;;;;;;5055481;28;20032;-15
2022/11/10 04:51:57;;;;;;;42.30;23.20;;;12.60;82.70;;;;;;5055403;28;20029;-15
2022/11/10 04:54:23;;;;;;;32.72;18.45;;;12.60;82.70;;;;;;5055337;28;20389;-14
2022/11/10 04:56:49;;;;;;;35.40;20.02;;;12.50;82.60;;;;;;5055178;28;20029;-16
2022/11/10 04:59:15;;;;;;;32.25;18.70;;;12.60;82.70;;;;;;5055187;28;20481;-15
2022/11/10 05:01:40;;;;;;;33.55;19.40;;;12.60;82.70;;;;;;5055261;28;20420;-15
2022/11/10 05:04:06;;;;;;;34.03;19.88;;;12.60;82.80;;;;;;5054968;28;20104;-15
2022/11/10 05:06:32;;;;;;;30.27;17.48;;;12.50;82.80;;;;;;5054859;28;20111;-13
2022/11/10 05:08:58;;;;;;;35.90;19.60;;;12.50;82.90;;;;;;5054625;28;20036;-14
2022/11/10 05:11:24;;;;;;;45.65;25.77;;;12.50;82.80;;;;;;5054750;28;20029;-13
2022/11/10 05:13:50;;;;;;;41.20;23.25;;;12.50;82.90;;;;;;5054704;28;20053;-14
2022/11/10 05:16:16;;;;;;;37.80;21.02;;;12.50;82.80;;;;;;5054818;28;20143;-14
2022/11/10 05:18:42;;;;;;;49.20;26.42;;;12.40;82.90;;;;;;5054655;28;20040;-14
2022/11/10 05:21:08;;;;;;;38.28;20.98;;;12.50;83.10;;;;;;5054537;28;20029;-14
2022/11/10 05:23:37;;;;;;;37.35;20.73;;;12.40;83.20;;;;;;5054918;28;20036;-14
2022/11/10 05:26:09;;;;;;;39.38;22.13;;;12.40;83.20;;;;;;5054754;28;20075;-16
2022/11/10 05:28:35;;;;;;;50.15;25.92;;;12.40;83.30;;;;;;5054619;28;20044;-17
2022/11/10 05:31:02;;;;;;;39.47;21.45;;;12.40;83.40;;;;;;5054144;28;20025;-16
2022/11/10 05:33:29;;;;;;;42.78;23.75;;;12.40;83.50;;;;;;5036510;28;20029;-16
2022/11/10 05:35:55;;;;;;;36.88;20.80;;;12.30;83.60;;;;;;5054565;28;20094;-14
2022/11/10 05:38:21;;;;;;;39.17;21.27;;;12.40;83.70;;;;;;5054208;28;20036;-13
2022/11/10 05:40:47;;;;;;;49.70;26.33;;;12.40;83.80;;;;;;5053522;28;20029;-13
2022/11/10 05:43:14;;;;;;;43.58;23.30;;;12.40;83.80;;;;;;5054434;28;20021;-16
2022/11/10 05:45:40;;;;;;;50.92;27.05;;;12.40;83.80;;;;;;5053992;28;20032;-15
2022/11/10 05:48:06;;;;;;;39.50;20.85;;;12.40;83.90;;;;;;5054331;28;20025;-14
2022/11/10 05:50:32;;;;;;;45.30;24.58;;;12.30;83.90;;;;;;5054305;28;20025;-15
2022/11/10 05:52:58;;;;;;;48.38;24.60;;;12.30;83.90;;;;;;5053732;28;20051;-15
2022/11/10 05:55:27;;;;;;;50.95;25.63;;;12.30;84.10;;;;;;5054422;28;20075;-16
2022/11/10 05:57:54;;;;;;;41.75;24.65;;;12.30;84.10;;;;;;5053706;28;20079;-16
2022/11/10 06:00:24;;;;;;;43.67;22.75;;;12.30;84.10;;;;;;5054100;28;20033;-15
2022/11/10 06:03:01;;;;;;;34.03;19.63;;;12.30;84.10;;;;;;5053601;28;20039;-14
2022/11/10 06:05:28;;;;;;;39.38;20.35;;;12.30;84.20;;;;;;5054081;28;20032;-15
2022/11/10 06:07:55;;;;;;;42.60;23.33;;;12.30;84.30;;;;;;5054082;28;20477;-15
2022/11/10 06:10:21;;;;;;;41.03;20.48;;;12.30;84.40;;;;;;5053706;28;20071;-14
2022/11/10 06:12:47;;;;;;;43.85;21.33;;;12.30;84.30;;;;;;5053515;28;20033;-16
2022/11/10 06:15:14;;;;;;;35.55;19.00;;;12.30;84.40;;;;;;5053481;28;20064;-16
2022/11/10 06:17:40;;;;;;;45.40;22.92;;;12.30;84.50;;;;;;5053626;28;20037;-14
2022/11/10 06:20:07;;;;;;;39.03;21.40;;;12.30;84.50;;;;;;5053668;28;20362;-14
2022/11/10 06:22:33;;;;;;;30.42;15.30;;;12.30;84.50;;;;;;5053667;28;20017;-14
2022/11/10 06:24:59;;;;;;;27.88;16.20;;;12.30;84.60;;;;;;5035347;28;20502;-14
2022/11/10 06:27:25;;;;;;;33.60;18.80;;;12.30;84.60;;;;;;5053800;28;20025;-16
2022/11/10 06:29:51;;;;;;;28.52;15.45;;;12.30;84.80;;;;;;5053563;28;20111;-15
2022/11/10 06:32:16;;;;;;;26.98;15.73;;;12.40;84.80;;;;;;5053179;28;20384;-14
2022/11/10 06:34:42;;;;;;;28.80;15.73;;;12.40;84.80;;;;;;5053250;28;20029;-14
2022/11/10 06:37:08;;;;;;;27.33;14.65;;;12.40;84.80;;;;;;5053231;28;20075;-14
2022/11/10 06:39:34;;;;;;;36.00;19.13;;;12.40;84.90;;;;;;5053601;28;20456;-14
2022/11/10 06:42:00;;;;;;;32.95;17.10;;;12.50;84.90;;;;;;5053373;28;20017;-14
2022/11/10 06:44:26;;;;;;;27.63;15.40;;;12.50;84.90;;;;;;5053033;28;20029;-16
2022/11/10 06:46:52;;;;;;;33.47;17.83;;;12.60;84.80;;;;;;5052686;28;20505;-16
2022/11/10 06:49:18;;;;;;;31.98;16.48;;;12.60;84.80;;;;;;5053333;28;20036;-14
2022/11/10 06:51:44;;;;;;;32.85;17.25;;;12.60;84.70;;;;;;5053210;28;20418;-17
2022/11/10 06:54:10;;;;;;;35.17;19.80;;;12.60;84.80;;;;;;5052945;28;20064;-14
2022/11/10 06:56:36;;;;;;;32.67;18.90;;;12.60;84.80;;;;;;5052951;28;20057;-16
2022/11/10 06:59:02;;;;;;;38.97;22.10;;;12.70;84.80;;;;;;5053046;28;20044;-15
2022/11/10 07:01:28;;;;;;;42.80;25.40;;;12.70;84.70;;;;;;5052822;28;20024;-16
2022/11/10 07:03:54;;;;;;;31.10;20.48;;;12.70;84.80;;;;;;5052973;28;20030;-15
2022/11/10 07:06:20;;;;;;;50.22;28.95;;;12.80;84.80;;;;;;5053123;28;20088;-17
2022/11/10 07:08:47;;;;;;;28.45;18.45;;;12.80;84.90;;;;;;5052914;28;20099;-13
2022/11/10 07:11:13;;;;;;;30.40;19.77;;;12.80;84.80;;;;;;5052851;28;20494;-14
2022/11/10 07:13:39;;;;;;;29.95;19.77;;;12.80;84.80;;;;;;5052458;28;20504;-14
2022/11/10 07:16:07;;;;;;;26.25;16.15;;;12.80;84.80;;;;;;5052647;28;20037;-14
2022/11/10 07:18:34;;;;;;;28.27;17.05;;;12.80;84.80;;;;;;5053078;28;20036;-14
2022/11/10 07:21:04;;;;;;;34.75;17.65;;;12.90;84.80;;;;;;5052524;28;20063;-14
2022/11/10 07:23:32;;;;;;;38.63;22.13;;;12.90;84.90;;;;;;5052671;28;20507;-13
2022/11/10 07:25:59;;;;;;;26.33;15.40;;;12.90;85.50;;;;;;5035041;28;20025;-14
2022/11/10 07:28:25;;;;;;;42.35;22.58;;;13.00;85.00;;;;;;5052994;28;20017;-16
2022/11/10 07:30:51;;;;;;;37.03;21.10;;;13.00;86.10;;;;;;5052413;28;20422;-14
2022/11/10 07:33:17;;;;;;;40.10;21.55;;;13.00;85.70;;;;;;5052607;28;20029;-16
2022/11/10 07:35:50;;;;;;;26.20;16.40;;;13.00;85.60;;;;;;5052883;28;20017;-14
2022/11/10 07:38:16;;;;;;;31.77;17.77;;;13.10;85.40;;;;;;5052872;28;20033;-16
2022/11/10 07:40:42;;;;;;;31.10;17.08;;;13.10;85.60;;;;;;5052545;28;20033;-14
2022/11/10 07:43:07;;;;;;;29.67;17.27;;;13.20;85.30;;;;;;5052367;28;20037;-14
2022/11/10 07:45:33;;;;;;;31.30;18.15;;;13.30;85.20;;;;;;5052388;28;20025;-14
2022/11/10 07:48:05;;;;;;;36.05;19.38;;;13.30;85.60;;;;;;5052465;28;20021;-14
2022/11/10 07:50:32;;;;;;;33.45;18.55;;;13.40;85.80;;;;;;5052832;28;20057;-14
2022/11/10 07:53:10;;;;;;;40.53;22.75;;;13.40;85.90;;;;;;5052173;28;20143;-15
2022/11/10 07:55:39;;;;;;;28.60;17.02;;;13.40;86.30;;;;;;5052489;28;20032;-15
2022/11/10 07:58:06;;;;;;;38.13;21.42;;;13.50;85.80;;;;;;5052355;28;20029;-14
2022/11/10 08:00:32;;;;;;;31.65;18.25;;;13.50;85.90;;;;;;5052626;28;20403;-14
2022/11/10 08:03:03;;;;;;;35.30;20.90;;;13.60;85.60;;;;;;5052582;28;20028;-14
2022/11/10 08:05:30;;;;;;;39.97;23.15;;;13.70;85.20;;;;;;5056309;28;20029;-14
2022/11/10 08:07:56;;;;;;;41.45;22.00;;;13.70;85.10;;;;;;5056310;28;20143;-15
2022/11/10 08:10:22;;;;;;;32.13;19.77;;;13.70;85.10;;;;;;5056178;28;20025;-14
2022/11/10 08:12:56;;;;;;;38.65;20.92;;;13.70;85.10;;;;;;5055889;28;20112;-14
2022/11/10 08:15:23;;;;;;;31.38;18.15;;;13.70;84.90;;;;;;5055710;28;20052;-14
2022/11/10 08:17:49;;;;;;;28.55;17.48;;;13.80;84.70;;;;;;5055628;28;20033;-14
2022/11/10 08:20:17;;;;;;;33.80;21.30;;;13.90;84.60;;;;;;5055692;28;20061;-14
2022/11/10 08:22:43;;;;;;;36.97;22.40;;;13.90;84.40;;;;;;5056034;28;20029;-14
2022/11/10 08:25:09;;;;;;;37.28;21.88;;;13.90;84.30;;;;;;5055514;28;20055;-13
2022/11/10 08:27:35;;;;;;;34.50;22.80;;;13.90;84.20;;;;;;5055541;28;20025;-14
2022/11/10 08:30:01;;;;;;;23.38;15.55;;;13.90;84.00;;;;;;5055593;28;20025;-14
2022/11/10 08:32:27;;;;;;;33.45;19.38;;;13.90;84.10;;;;;;5055761;28;20033;-13
2022/11/10 08:34:53;;;;;;;25.98;14.75;;;13.90;84.70;;;;;;5055262;28;20162;-14
2022/11/10 08:37:19;;;;;;;30.38;18.70;;;13.90;84.60;;;;;;5037538;28;20203;-13
2022/11/10 08:39:45;;;;;;;26.30;16.55;;;13.90;84.80;;;;;;5055655;28;20076;-13
2022/11/10 08:42:11;;;;;;;23.05;13.95;;;13.90;85.00;;;;;;5055457;28;20473;-13
2022/11/10 08:44:37;;;;;;;33.17;18.27;;;14.00;84.80;;;;;;5055471;28;20029;-14
2022/11/10 08:47:03;;;;;;;32.92;19.02;;;14.00;84.80;;;;;;5055075;28;20087;-13
2022/11/10 08:49:29;;;;;;;29.02;17.55;;;14.10;84.50;;;;;;5055273;28;20033;-13
2022/11/10 08:51:55;;;;;;;27.27;15.35;;;14.10;84.40;;;;;;5055240;28;20370;-15
2022/11/10 08:54:21;;;;;;;29.20;17.10;;;14.10;84.30;;;;;;5055403;28;20532;-14
2022/11/10 08:56:47;;;;;;;36.17;20.77;;;14.10;84.10;;;;;;5054929;28;20484;-14
2022/11/10 08:59:13;;;;;;;33.22;20.38;;;14.20;84.10;;;;;;5055226;28;20064;-13
2022/11/10 09:01:39;;;;;;;31.13;18.20;;;14.10;83.90;;;;;;5055173;28;20120;-15
2022/11/10 09:04:05;;;;;;;29.17;16.27;;;14.20;83.90;;;;;;5054884;28;20097;-16
2022/11/10 09:06:30;;;;;;;32.08;19.05;;;14.20;83.90;;;;;;5055129;28;20029;-16
2022/11/10 09:08:57;;;;;;;24.50;15.13;;;14.30;83.90;;;;;;5054769;28;20382;-14
2022/11/10 09:11:23;;;;;;;34.47;19.45;;;14.30;83.80;;;;;;5054866;28;20489;-14
2022/11/10 09:13:49;;;;;;;25.85;15.80;;;14.40;83.60;;;;;;5054540;28;20032;-14
2022/11/10 09:16:15;;;;;;;23.67;14.52;;;14.40;83.50;;;;;;5053707;28;20025;-15
2022/11/10 09:18:40;;;;;;;30.60;16.25;;;14.50;83.60;;;;;;5054628;28;20568;-14
2022/11/10 09:21:10;;;;;;;38.25;21.92;;;14.60;83.50;;;;;;5054341;28;20124;-14
2022/11/10 09:23:36;;;;;;;38.15;22.77;;;14.60;83.00;;;;;;5054539;28;20593;-14
2022/11/10 09:26:06;;;;;;;33.17;19.88;;;14.60;82.90;;;;;;5054809;28;20029;-14
2022/11/10 09:28:32;;;;;;;36.63;21.10;;;14.60;82.70;;;;;;5054521;28;20049;-15
2022/11/10 09:30:58;;;;;;;36.55;23.20;;;14.60;82.70;;;;;;5054226;28;20057;-13
2022/11/10 09:33:24;;;;;;;37.55;21.30;;;14.50;82.70;;;;;;5054426;28;20461;-14
2022/11/10 09:35:50;;;;;;;37.40;21.60;;;14.50;82.60;;;;;;5054621;28;20083;-14
2022/11/10 09:38:16;;;;;;;42.30;24.55;;;14.50;82.60;;;;;;5054162;28;20029;-14
2022/11/10 09:40:49;;;;;;;38.13;22.80;;;14.50;82.80;;;;;;5054189;28;20035;-14
2022/11/10 09:43:33;;;;;;;41.85;24.88;;;14.50;82.80;;;;;;5054245;28;20036;-14
2022/11/10 09:46:03;;;;;;;42.42;24.13;;;14.50;82.90;;;;;;5054452;28;20021;-15
2022/11/10 09:48:34;;;;;;;34.13;19.67;;;14.50;82.80;;;;;;5054444;28;20053;-14
2022/11/10 09:51:16;;;;;;;41.13;24.95;;;14.50;82.70;;;;;;5053791;28;20037;-14
2022/11/10 09:53:57;;;;;;;37.17;22.33;;;14.50;82.80;;;;;;5054325;28;20083;-14
2022/11/10 09:56:35;;;;;;;59.15;34.90;;;14.50;82.80;;;;;;5053986;28;20061;-14
2022/11/10 09:59:14;;;;;;;43.80;25.75;;;14.50;82.80;;;;;;5053923;28;20025;-15
2022/11/10 10:01:52;;;;;;;42.05;24.67;;;14.60;82.70;;;;;;5053684;28;20033;-14
2022/11/10 10:04:33;;;;;;;30.83;19.98;;;14.60;82.70;;;;;;5054073;28;20017;-14
2022/11/10 10:07:11;;;;;;;34.85;21.30;;;14.60;82.80;;;;;;5053853;28;20032;-15
2022/11/10 10:09:53;;;;;;;63.40;37.72;;;14.60;82.80;;;;;;5053724;28;20025;-14
2022/11/10 10:12:53;;;;;;;57.22;32.17;;;14.70;82.50;;;;;;5053850;28;20428;-13
2022/11/10 10:15:56;;;;;;;97.45;57.15;;;14.70;82.40;;;;;;5053890;28;20051;-16
2022/11/10 10:18:54;;;;;;;40.53;24.63;;;14.70;82.40;;;;;;5053740;28;20485;-16
2022/11/10 10:21:38;;;;;;;37.92;22.80;;;14.70;82.30;;;;;;5042737;28;20070;-17
2022/11/10 10:24:10;;;;;;;34.00;21.90;;;14.70;82.40;;;;;;5053813;28;20021;-15
2022/11/10 10:27:05;;;;;;;36.85;22.05;;;14.70;82.40;;;;;;5053107;28;20075;-14
2022/11/10 10:29:39;;;;;;;34.85;21.25;;;14.80;82.40;;;;;;5050215;28;20045;-15
2022/11/10 10:32:13;;;;;;;33.10;20.35;;;14.90;82.20;;;;;;5053570;28;20040;-14
2022/11/10 10:34:42;;;;;;;32.70;20.63;;;14.90;82.10;;;;;;5053405;28;20021;-15
2022/11/10 10:37:20;;;;;;;30.05;18.73;;;15.00;82.00;;;;;;5052949;28;20396;-14
2022/11/10 10:39:49;;;;;;;32.65;21.48;;;15.10;82.00;;;;;;5054032;28;20036;-15
2022/11/10 10:42:30;;;;;;;33.10;19.65;;;15.10;81.90;;;;;;5053164;28;20444;-15
2022/11/10 10:45:17;;;;;;;32.20;19.63;;;15.20;81.70;;;;;;5053194;28;20384;-15
2022/11/10 10:47:44;;;;;;;33.65;20.15;;;15.20;81.80;;;;;;5053119;28;20051;-15
2022/11/10 10:50:33;;;;;;;29.65;19.08;;;15.20;81.90;;;;;;5053017;28;20476;-15
2022/11/10 10:53:17;;;;;;;33.05;21.50;;;15.30;81.70;;;;;;5052855;28;20071;-14
2022/11/10 10:56:06;;;;;;;32.13;20.58;;;15.30;81.60;;;;;;5053055;28;20043;-14
2022/11/10 10:58:54;;;;;;;32.00;18.75;;;15.40;81.60;;;;;;5052372;28;20112;-15
2022/11/10 11:01:36;;;;;;;31.80;18.58;;;15.40;81.40;;;;;;5053139;28;20531;-15
2022/11/10 11:04:26;;;;;;;29.80;18.90;;;15.60;81.70;;;;;;5052917;28;20108;-15
2022/11/10 11:07:00;;;;;;;30.42;19.02;;;15.80;81.40;;;;;;5052089;28;20036;-15
2022/11/10 11:09:48;;;;;;;33.17;20.23;;;15.90;80.60;;;;;;5052866;28;20028;-15
2022/11/10 11:12:19;;;;;;;26.55;16.33;;;15.90;80.60;;;;;;5052895;28;20060;-15
2022/11/10 11:14:45;;;;;;;32.67;20.40;;;15.90;80.50;;;;;;5052615;28;20048;-15
2022/11/10 11:17:22;;;;;;;29.88;19.35;;;16.00;80.70;;;;;;5052473;28;20029;-15
2022/11/10 11:19:53;;;;;;;29.67;17.95;;;15.90;80.50;;;;;;5053050;28;20135;-15
2022/11/10 11:22:33;;;;;;;30.80;19.75;;;15.90;80.50;;;;;;5052779;28;20028;-15
2022/11/10 11:25:32;;;;;;;27.30;17.05;;;15.90;80.50;;;;;;5052546;28;20108;-14
2022/11/10 11:28:04;;;;;;;29.30;19.55;;;16.00;80.50;;;;;;5052963;28;20423;-14
2022/11/10 11:31:07;;;;;;;25.88;17.08;;;16.00;80.80;;;;;;5052998;28;20079;-15
2022/11/10 11:34:00;;;;;;;28.90;17.83;;;16.20;80.50;;;;;;5052878;28;20057;-15
2022/11/10 11:36:44;;;;;;;28.02;18.02;;;16.30;80.30;;;;;;5035078;28;20550;-15
2022/11/10 11:39:29;;;;;;;21.05;14.82;;;16.40;80.00;;;;;;5053538;28;20124;-15
2022/11/10 11:42:12;;;;;;;24.50;15.80;;;16.50;79.70;;;;;;5056477;28;20023;-15
2022/11/10 11:44:49;;;;;;;24.23;15.43;;;16.60;79.70;;;;;;5055345;28;20037;-14
2022/11/10 11:47:24;;;;;;;20.55;12.77;;;16.70;79.50;;;;;;5056681;28;20496;-15
2022/11/10 11:50:08;;;;;;;25.30;16.10;;;16.80;79.60;;;;;;5056412;28;20495;-14
2022/11/10 11:53:03;;;;;;;21.45;14.30;;;16.90;79.50;;;;;;5038517;28;20028;-14
2022/11/10 11:55:50;;;;;;;20.95;13.70;;;17.00;79.20;;;;;;5056791;28;20021;-15
2022/11/10 11:58:38;;;;;;;14.75;10.52;;;17.10;79.10;;;;;;5056430;28;20029;-15
2022/11/10 12:01:04;;;;;;;20.58;13.38;;;17.10;78.40;;;;;;5056037;28;20086;-15
2022/11/10 12:03:41;;;;;;;17.75;11.35;;;17.00;78.70;;;;;;5056585;28;20442;-14
2022/11/10 12:06:33;;;;;;;15.30;10.75;;;17.10;78.50;;;;;;5056438;28;20476;-15
2022/11/10 12:09:42;;;;;;;18.58;12.10;;;17.10;78.20;;;;;;5055833;28;20025;-15
2022/11/10 12:12:50;;;;;;;14.15;9.80;;;17.00;77.30;;;;;;4994737;28;20018;-16
2022/11/10 12:15:48;;;;;;;16.40;10.25;;;16.90;77.60;;;;;;4986487;28;20046;-14
2022/11/10 12:18:17;;;;;;;17.58;10.93;;;16.90;78.10;;;;;;4994626;28;20038;-14
2022/11/10 12:20:45;;;;;;;15.10;10.57;;;16.90;78.00;;;;;;4994643;28;20114;-15
2022/11/10 12:23:14;;;;;;;15.70;10.35;;;17.10;78.40;;;;;;4994189;28;20173;-12
2022/11/10 12:25:58;;;;;;;15.70;9.45;;;17.60;77.90;;;;;;4994281;28;20150;-14
2022/11/10 12:28:32;;;;;;;15.25;10.70;;;18.10;77.00;;;;;;4994319;28;20026;-13
2022/11/10 12:31:02;;;;;;;15.25;9.95;;;18.70;75.40;;;;;;4993960;28;20482;-14
2022/11/10 12:33:37;;;;;;;13.90;9.20;;;19.20;74.40;;;;;;4994143;28;20580;-13
2022/11/10 12:36:10;;;;;;;13.55;8.77;;;19.30;73.30;;;;;;4994232;28;20109;-16
2022/11/10 12:38:50;;;;;;;12.88;9.00;;;19.20;71.40;;;;;;4993955;28;20494;-15
2022/11/10 12:41:20;;;;;;;13.35;8.90;;;18.90;72.60;;;;;;4994304;28;20507;-17
2022/11/10 12:44:04;;;;;;;12.00;8.93;;;18.80;73.50;;;;;;4994023;28;20073;-16
2022/11/10 12:46:30;;;;;;;13.35;9.20;;;18.90;74.00;;;;;;5037774;28;20036;-14
2022/11/10 12:49:18;;;;;;;9.63;7.20;;;19.10;72.90;;;;;;5054965;28;20025;-15
2022/11/10 12:52:09;;;;;;;10.02;6.90;;;19.40;72.60;;;;;;5055264;28;20087;-14
2022/11/10 12:54:36;;;;;;;8.50;5.88;;;19.80;68.70;;;;;;5037409;28;20029;-16
2022/11/10 12:57:18;;;;;;;8.20;5.43;;;19.90;70.20;;;;;;5054749;28;20040;-14